San Lorenzo, CA

3:10 PM PDT on September 21, 2014 (GMT -0700)
Hayward Executive | Change Station
CLOSE
Current Station
Airport
Location: Hayward,
Elevation: 46 ft
Nearby Weather Stations

Elev 46 ft 37.66 °N, 122.12 °W | Updated 16 minutes ago

Overcast
Overcast
72 °F
Feels Like 72 °F
N
10
Wind Variable Wind from WNW

Today
High -- | Low -- °F
--% Chance of Precip.
Yesterday
High -- | Low -- °F
Precip. -- in
6:55 AM 7:06 PM
Waning Crescent, 5% visible
Pressure 30.02 in
Visibility 10.0 miles
Clouds Overcast 1700 ft
Dew Point 62 °F
Humidity 71%
Rainfall 0.00 in
Snow Depth 0 in , 0 in , 0 in
UV 2 out of 12
Pollen 3.80 out of 12
PM2.5 Good
Flu Activity Not available.
METAR KHWD 212154Z AUTO 29009KT 10SM OVC017 22/17 A2999 RMK AO2 SLP165 T02220167

More Conditions Fewer Conditions

Pressure 30.02 in
Visibility 10.0 miles
Clouds Overcast 1700 ft
Dew Point 62 °F
Humidity 71%
Rainfall 0.00 in
Snow Depth 0 in , 0 in , 0 in
UV 2 out of 12
Pollen 3.80 out of 12
PM2.5 Good
Flu Activity Not available.
METAR KHWD 212154Z AUTO 29009KT 10SM OVC017 22/17 A2999 RMK AO2 SLP165 T02220167

More Conditions Fewer Conditions

10-Day Weather Forecast

Almanac

Astronomy

Sep. 21, 2014 Rise Set
Actual Time 6:55 AM PDT 7:06 PM PDT
Civil Twilight 6:29 AM PDT 7:32 PM PDT
Nautical Twilight 5:58 AM PDT 8:03 PM PDT
Astronomical Twilight 5:27 AM PDT 8:34 PM PDT
Moon 4:36 AM PDT 5:44 PM PDT
Length of Visible Light 13h 03m
Length of Day
12h 11m
Tomorrow will be 2m 24s shorter.
Waning Crescent, 5% of the Moon is Illuminated
Today
Waning Crescent
Sep 24
New
Oct 1
First Quarter
Oct 8
Full
Oct 15
Last Quarter

Today's Extremes

State Highs State Lows

Community

WunderPhotos

Upload Photos

1,755,269 photos uploaded!

WunderBlogs® & News

Nearby

Air Quality

  Air Quality AQ Index Pollutant
Yesterday Good
PM2.5
Yesterday Good
OZONE
Current Good
PM2.5
Sunday Moderate
PM2.5
Monday Good
PM2.5
Tuesday Good
PM2.5
Wednesday Good
OZONE
Thursday Good
OZONE
Friday Good
OZONE

Snow Depth

Station Depth Elevation
Adin Mountain 0 in 6200 ft
Summit Meadow 0 in 9122 ft
Spratt Creek 0 in 6200 ft
Leavitt Meadows 0 in 7200 ft
Echo Peak 0 in 7800 ft

Earthquake Activity

City Distance Mag. Time & Date
Sonoma, California 48 miles 2.7 1:17 PM PDT
2014-09-21
Cloverdale, California 91 miles 2.5 9:15 PM PDT
2014-09-20
Livermore, California 21 miles 2.6 3:37 AM PDT
2014-09-19
The Geysers, California 82 miles 2.5 11:29 PM PDT
2014-09-17
Minimum magnitude displayed is 2.5.

Coastal Water Temperatures

Place Temperature
No Stations Reporting

Nearby Weather Stations